createdAt,value
2023-12-12T00:00:09.300Z,97466.75
2023-12-12T00:02:35.690Z,97478.22
2023-12-12T00:05:02.059Z,97484.97
2023-12-12T00:07:28.532Z,97483.38
2023-12-12T00:09:54.981Z,97487.13
2023-12-12T00:12:21.567Z,97492.00
2023-12-12T00:14:47.956Z,97498.69
2023-12-12T00:17:14.397Z,97492.06
2023-12-12T00:19:41.586Z,97503.03
2023-12-12T00:22:08.136Z,97494.81
2023-12-12T00:24:34.532Z,97495.63
2023-12-12T00:27:00.924Z,97490.06
2023-12-12T00:29:27.283Z,97494.91
2023-12-12T00:31:53.657Z,97497.09
2023-12-12T00:34:20.137Z,97492.34
2023-12-12T00:36:46.549Z,97499.06
2023-12-12T00:39:12.922Z,97488.66
2023-12-12T00:41:39.313Z,97493.53
2023-12-12T00:44:05.717Z,97491.16
2023-12-12T00:46:32.343Z,97492.53
2023-12-12T00:48:58.935Z,97497.38
2023-12-12T00:51:25.405Z,97503.78
2023-12-12T00:53:51.800Z,97499.84
2023-12-12T00:56:18.220Z,97511.63
2023-12-12T00:58:44.621Z,97508.44
2023-12-12T01:01:15.347Z,97510.63
2023-12-12T01:03:42.080Z,97513.59
2023-12-12T01:06:08.489Z,97521.09
2023-12-12T01:08:34.859Z,97515.25
2023-12-12T01:11:02.088Z,97526.22
2023-12-12T01:13:28.515Z,97522.75
2023-12-12T01:15:54.958Z,97527.63
2023-12-12T01:18:21.456Z,97529.75
2023-12-12T01:20:47.885Z,97527.09
2023-12-12T01:23:14.574Z,97526.91
2023-12-12T01:25:41.069Z,97527.97
2023-12-12T01:28:07.543Z,97526.69
2023-12-12T01:30:35.549Z,97534.50
2023-12-12T01:33:03.080Z,97530.53
2023-12-12T01:35:29.467Z,97535.34
2023-12-12T01:37:55.843Z,97526.84
2023-12-12T01:40:22.339Z,97532.78
2023-12-12T01:42:48.752Z,97534.91
2023-12-12T01:45:17.171Z,97534.09
2023-12-12T01:47:44.178Z,97539.25
2023-12-12T01:50:10.621Z,97529.94
2023-12-12T01:52:37.141Z,97530.22
2023-12-12T01:55:03.584Z,97525.47
2023-12-12T01:57:30.352Z,97517.47
2023-12-12T01:59:56.861Z,97516.97
2023-12-12T02:02:23.245Z,97528.22
2023-12-12T02:04:49.921Z,97523.97
2023-12-12T02:07:17.002Z,97527.72
2023-12-12T02:10:21.699Z,97526.13
2023-12-12T02:12:48.039Z,97535.22
2023-12-12T02:15:16.100Z,97536.59
2023-12-12T02:17:42.454Z,97539.53
2023-12-12T02:20:08.992Z,97535.59
2023-12-12T02:22:35.400Z,97540.13
2023-12-12T02:25:01.796Z,97529.22
2023-12-12T02:27:28.234Z,97528.75
2023-12-12T02:32:20.792Z,97518.94
2023-12-12T02:34:47.412Z,97517.13
2023-12-12T02:37:13.785Z,97519.78
2023-12-12T02:39:40.145Z,97522.72
2023-12-12T02:42:06.484Z,97515.31
2023-12-12T02:44:32.841Z,97516.69
2023-12-12T02:46:59.183Z,97509.75
2023-12-12T02:49:25.620Z,97513.53
2023-12-12T02:51:52.041Z,97499.66
2023-12-12T02:54:18.396Z,97504.50
2023-12-12T02:56:44.726Z,97497.06
2023-12-12T02:59:11.084Z,97498.94
2023-12-12T03:01:37.572Z,97499.25
2023-12-12T03:04:04.142Z,97498.44
2023-12-12T03:06:30.557Z,97493.31
2023-12-12T03:08:56.887Z,97501.53
2023-12-12T03:11:23.239Z,97499.66
2023-12-12T03:13:49.573Z,97497.00
2023-12-12T03:16:15.916Z,97491.94
2023-12-12T03:18:42.320Z,97498.06
2023-12-12T03:21:08.716Z,97489.63
2023-12-12T03:23:35.079Z,97494.09
2023-12-12T03:26:09.407Z,97493.38
2023-12-12T03:28:36.790Z,97499.09
2023-12-12T03:31:04.204Z,97501.75
2023-12-12T03:33:30.734Z,97499.88
2023-12-12T03:35:57.161Z,97503.03
2023-12-12T03:38:25.984Z,97496.91
2023-12-12T03:40:52.556Z,97499.09
2023-12-12T03:43:19.043Z,97499.88
2023-12-12T03:45:45.457Z,97500.66
2023-12-12T03:48:12.587Z,97492.88
2023-12-12T03:50:39.024Z,97496.34
2023-12-12T03:53:05.386Z,97501.69
2023-12-12T03:55:31.779Z,97508.88
2023-12-12T03:57:58.189Z,97506.53
2023-12-12T04:00:24.548Z,97503.03
2023-12-12T04:02:51.488Z,97506.28
2023-12-12T04:05:17.987Z,97497.78
2023-12-12T04:07:44.438Z,97496.97
2023-12-12T04:10:11.085Z,97484.78
2023-12-12T04:12:37.805Z,97490.59
2023-12-12T04:15:04.202Z,97490.59
2023-12-12T04:17:31.192Z,97483.69
2023-12-12T04:19:57.814Z,97491.75
2023-12-12T04:22:24.216Z,97484.06
2023-12-12T04:24:50.638Z,97491.31
2023-12-12T04:27:17.164Z,97488.38
2023-12-12T04:29:43.612Z,97487.84
2023-12-12T04:32:09.963Z,97495.34
2023-12-12T04:34:36.429Z,97507.09
2023-12-12T04:37:02.833Z,97500.19
2023-12-12T04:39:29.265Z,97499.34
2023-12-12T04:41:55.629Z,97498.56
2023-12-12T04:44:22.390Z,97498.56
2023-12-12T04:46:48.826Z,97501.53
2023-12-12T04:49:15.505Z,97499.66
2023-12-12T04:51:41.989Z,97505.28
2023-12-12T04:54:08.351Z,97499.72
2023-12-12T04:56:34.795Z,97497.91
2023-12-12T04:59:01.150Z,97500.28
2023-12-12T05:01:28.317Z,97497.91
2023-12-12T05:03:54.841Z,97500.34
2023-12-12T05:06:22.088Z,97498.47
2023-12-12T05:08:48.922Z,97498.75
2023-12-12T05:11:15.668Z,97501.72
2023-12-12T05:13:42.415Z,97488.94
2023-12-12T05:16:20.577Z,97495.38
2023-12-12T05:18:55.777Z,97496.44
2023-12-12T05:21:23.024Z,97499.09
2023-12-12T05:23:50.066Z,97491.13
2023-12-12T05:26:16.840Z,97485.00
2023-12-12T05:28:43.539Z,97491.91
2023-12-12T05:31:10.044Z,97499.09
2023-12-12T05:33:36.676Z,97500.97
2023-12-12T05:36:03.369Z,97515.09
2023-12-12T05:38:29.731Z,97503.91
2023-12-12T05:40:57.246Z,97505.28
2023-12-12T05:43:23.684Z,97499.44
2023-12-12T05:45:50.313Z,97506.13
2023-12-12T05:48:16.739Z,97508.00
2023-12-12T05:50:43.567Z,97504.81
2023-12-12T05:53:09.939Z,97511.53
2023-12-12T05:55:36.333Z,97510.19
2023-12-12T05:58:02.728Z,97506.75
2023-12-12T06:00:29.131Z,97503.00
2023-12-12T06:02:55.739Z,97511.00
2023-12-12T06:05:22.150Z,97501.91
2023-12-12T06:07:48.639Z,97504.59
2023-12-12T06:10:15.075Z,97506.19
2023-12-12T06:12:41.554Z,97507.25
2023-12-12T06:15:09.002Z,97500.63
2023-12-12T06:17:40.288Z,97501.41
2023-12-12T06:20:08.140Z,97502.50
2023-12-12T06:22:35.379Z,97499.31
2023-12-12T06:25:03.124Z,97494.28
2023-12-12T06:27:30.772Z,97500.69
2023-12-12T06:29:57.349Z,97502.56
2023-12-12T06:32:23.888Z,97502.56
2023-12-12T06:34:50.434Z,97503.63
2023-12-12T06:37:17.408Z,97506.28
2023-12-12T06:39:43.859Z,97501.25
2023-12-12T06:42:10.281Z,97503.13
2023-12-12T06:44:37.936Z,97496.47
2023-12-12T06:47:04.325Z,97498.34
2023-12-12T06:49:30.917Z,97497.84
2023-12-12T06:51:57.466Z,97488.28
2023-12-12T06:54:23.942Z,97493.59
2023-12-12T06:56:50.314Z,97493.03
2023-12-12T06:59:16.681Z,97502.66
2023-12-12T07:01:43.279Z,97505.84
2023-12-12T07:04:10.231Z,97500.00
2023-12-12T07:06:36.785Z,97505.63
2023-12-12T07:09:03.840Z,97505.63
2023-12-12T07:11:30.195Z,97502.94
2023-12-12T07:13:58.753Z,97507.50
2023-12-12T07:16:25.381Z,97505.91
2023-12-12T07:18:51.925Z,97509.34
2023-12-12T07:21:18.438Z,97504.81
2023-12-12T07:23:44.831Z,97513.59
2023-12-12T07:26:14.122Z,97510.16
2023-12-12T07:28:40.570Z,97514.97
2023-12-12T07:31:07.288Z,97511.50
2023-12-12T07:33:33.792Z,97513.38
2023-12-12T07:36:00.221Z,97514.44
2023-12-12T07:38:26.673Z,97510.50
2023-12-12T07:40:53.106Z,97508.88
2023-12-12T07:43:19.523Z,97504.91
2023-12-12T07:45:45.942Z,97503.34
2023-12-12T07:48:12.428Z,97500.69
2023-12-12T07:50:38.855Z,97500.69
2023-12-12T07:53:05.893Z,97504.91
2023-12-12T07:55:32.711Z,97500.88
2023-12-12T07:57:59.125Z,97512.06
2023-12-12T08:00:27.245Z,97511.00
2023-12-12T08:02:53.594Z,97503.56
2023-12-12T08:05:20.008Z,97503.56
2023-12-12T08:07:46.412Z,97507.28
2023-12-12T08:10:12.881Z,97508.63
2023-12-12T08:12:39.278Z,97514.19
2023-12-12T08:15:05.923Z,97503.06
2023-12-12T08:17:32.758Z,97501.47
2023-12-12T08:19:59.574Z,97502.25
2023-12-12T08:22:26.691Z,97501.47
2023-12-12T08:24:54.890Z,97502.56
2023-12-12T08:27:21.277Z,97504.38
2023-12-12T08:29:48.236Z,97502.56
2023-12-12T08:32:14.597Z,97491.13
2023-12-12T08:34:40.977Z,97506.78
2023-12-12T08:37:07.407Z,97501.69
2023-12-12T08:39:33.763Z,97499.84
2023-12-12T08:42:00.193Z,97491.31
2023-12-12T08:44:26.987Z,97500.06
2023-12-12T08:46:53.394Z,97505.91
2023-12-12T08:49:20.066Z,97502.16
2023-12-12T08:51:46.664Z,97497.91
2023-12-12T08:54:13.042Z,97507.00
2023-12-12T08:56:39.425Z,97498.50
2023-12-12T08:59:05.838Z,97497.47
2023-12-12T09:01:32.346Z,97497.22
2023-12-12T09:03:58.865Z,97495.56
2023-12-12T09:06:25.280Z,97496.88
2023-12-12T09:08:51.653Z,97501.13
2023-12-12T09:11:18.011Z,97495.00
2023-12-12T09:13:44.647Z,97497.38
2023-12-12T09:16:11.241Z,97492.59
2023-12-12T09:18:38.093Z,97487.25
2023-12-12T09:21:04.834Z,97492.00
2023-12-12T09:23:32.120Z,97490.16
2023-12-12T09:25:58.513Z,97490.16
2023-12-12T09:28:24.894Z,97482.97
2023-12-12T09:30:51.346Z,97485.63
2023-12-12T09:33:17.925Z,97485.88
2023-12-12T09:35:44.647Z,97483.22
2023-12-12T09:38:11.113Z,97482.97
2023-12-12T09:40:37.757Z,97482.97
2023-12-12T09:43:04.717Z,97475.75
2023-12-12T09:45:32.197Z,97481.88
2023-12-12T09:47:59.078Z,97468.56
2023-12-12T09:50:25.504Z,97463.25
2023-12-12T09:52:52.970Z,97464.81
2023-12-12T09:55:20.382Z,97456.81
2023-12-12T09:57:47.335Z,97457.91
2023-12-12T10:00:15.564Z,97448.06
2023-12-12T10:02:42.003Z,97437.41
2023-12-12T10:05:11.522Z,97443.50
2023-12-12T10:07:38.399Z,97439.53
2023-12-12T10:10:08.447Z,97430.19
2023-12-12T10:12:34.883Z,97432.84
2023-12-12T10:15:01.864Z,97428.63
2023-12-12T10:17:28.752Z,97428.31
2023-12-12T10:19:58.569Z,97418.25
2023-12-12T10:22:26.900Z,97420.09
2023-12-12T10:24:54.128Z,97407.88
2023-12-12T10:27:20.819Z,97403.63
2023-12-12T10:29:47.183Z,97396.44
2023-12-12T10:32:14.500Z,97392.97
2023-12-12T10:34:47.471Z,97391.09
2023-12-12T10:37:17.218Z,97378.56
2023-12-12T10:39:45.004Z,97377.00
2023-12-12T10:42:11.385Z,97373.53
2023-12-12T10:44:38.432Z,97374.31
2023-12-12T10:47:06.152Z,97370.59
2023-12-12T10:49:33.403Z,97364.16
2023-12-12T10:52:04.897Z,97362.59
2023-12-12T10:54:32.886Z,97356.19
2023-12-12T10:56:59.250Z,97355.13
2023-12-12T10:59:57.328Z,97345.53
2023-12-12T11:02:11.960Z,97346.06
2023-12-12T11:04:38.352Z,97341.81
2023-12-12T11:07:04.790Z,97337.28
2023-12-12T11:09:31.177Z,97334.59
2023-12-12T11:11:57.636Z,97335.69
2023-12-12T11:14:24.770Z,97341.03
2023-12-12T11:16:51.898Z,97329.84
2023-12-12T11:19:18.607Z,97329.84
2023-12-12T11:21:51.594Z,97322.16
2023-12-12T11:24:18.817Z,97310.97
2023-12-12T11:26:46.581Z,97313.94
2023-12-12T11:29:15.043Z,97306.25
2023-12-12T11:31:57.602Z,97304.63
2023-12-12T11:34:24.367Z,97296.94
2023-12-12T11:36:54.581Z,97297.22
2023-12-12T11:39:23.765Z,97290.81
2023-12-12T11:41:51.163Z,97286.59
2023-12-12T11:44:18.842Z,97281.25
2023-12-12T11:46:45.210Z,97282.03
2023-12-12T11:49:18.273Z,97276.72
2023-12-12T11:51:47.596Z,97269.03
2023-12-12T11:54:21.820Z,97281.56
2023-12-12T11:56:48.979Z,97270.59
2023-12-12T11:59:24.511Z,97276.72
2023-12-12T12:01:51.200Z,97269.81
2023-12-12T12:04:17.769Z,97261.47
2023-12-12T12:06:44.405Z,97260.13
2023-12-12T12:09:11.772Z,97262.69
2023-12-12T12:11:38.540Z,97258.63
2023-12-12T12:14:04.925Z,97259.78
2023-12-12T12:16:31.362Z,97252.41
2023-12-12T12:18:57.849Z,97257.66
2023-12-12T12:21:24.759Z,97247.53
2023-12-12T12:23:51.141Z,97249.31
2023-12-12T12:26:17.637Z,97250.13
2023-12-12T12:28:44.020Z,97247.94
2023-12-12T12:31:10.577Z,97245.56
2023-12-12T12:33:37.341Z,97242.69
2023-12-12T12:36:03.777Z,97243.63
2023-12-12T12:38:30.435Z,97241.19
2023-12-12T12:40:56.823Z,97239.00
2023-12-12T12:43:26.014Z,97238.09
2023-12-12T12:45:52.615Z,97227.84
2023-12-12T12:48:20.962Z,97218.38
2023-12-12T12:50:48.241Z,97222.94
2023-12-12T12:53:14.763Z,97215.09
2023-12-12T12:55:42.016Z,97203.53
2023-12-12T12:58:10.879Z,97204.63
2023-12-12T13:00:37.441Z,97196.94
2023-12-12T13:03:06.607Z,97192.41
2023-12-12T13:05:32.989Z,97183.09
2023-12-12T13:07:59.387Z,97183.09
2023-12-12T13:10:38.917Z,97184.47
2023-12-12T13:13:10.533Z,97179.22
2023-12-12T13:15:37.222Z,97183.66
2023-12-12T13:18:03.774Z,97181.06
2023-12-12T13:20:30.219Z,97173.56
2023-12-12T13:22:56.668Z,97180.47
2023-12-12T13:25:23.177Z,97172.19
2023-12-12T13:27:49.559Z,97177.22
2023-12-12T13:30:16.324Z,97165.47
2023-12-12T13:32:43.600Z,97164.09
2023-12-12T13:35:18.633Z,97161.91
2023-12-12T13:37:54.238Z,97157.59
2023-12-12T13:40:23.275Z,97143.16
2023-12-12T13:42:50.777Z,97151.47
2023-12-12T13:45:18.339Z,97139.50
2023-12-12T13:47:44.925Z,97139.31
2023-12-12T13:50:11.607Z,97139.91
2023-12-12T13:52:38.247Z,97136.44
2023-12-12T13:55:04.786Z,97135.94
2023-12-12T13:57:31.544Z,97144.22
2023-12-12T13:59:58.149Z,97144.03
2023-12-12T14:02:30.251Z,97138.41
2023-12-12T14:05:02.536Z,97142.09
2023-12-12T14:07:29.105Z,97132.59
2023-12-12T14:09:55.518Z,97133.09
2023-12-12T14:12:22.138Z,97129.34
2023-12-12T14:14:48.527Z,97129.03
2023-12-12T14:17:15.563Z,97128.72
2023-12-12T14:19:42.162Z,97121.63
2023-12-12T14:22:10.010Z,97123.03
2023-12-12T14:24:38.458Z,97121.44
2023-12-12T14:27:07.003Z,97117.78
2023-12-12T14:29:33.441Z,97112.44
2023-12-12T14:31:59.904Z,97107.22
2023-12-12T14:34:26.374Z,97103.47
2023-12-12T14:36:52.955Z,97105.25
2023-12-12T14:39:19.754Z,97100.69
2023-12-12T14:41:46.147Z,97106.13
2023-12-12T14:44:12.595Z,97100.81
2023-12-12T14:46:39.009Z,97102.69
2023-12-12T14:49:06.434Z,97103.06
2023-12-12T14:51:32.921Z,97102.00
2023-12-12T14:54:00.145Z,97104.66
2023-12-12T14:56:26.597Z,97090.63
2023-12-12T14:58:53.569Z,97089.13
2023-12-12T15:01:20.176Z,97079.00
2023-12-12T15:03:46.710Z,97072.25
2023-12-12T15:06:13.244Z,97073.72
2023-12-12T15:08:39.663Z,97068.03
2023-12-12T15:11:06.131Z,97055.69
2023-12-12T15:13:32.577Z,97053.81
2023-12-12T15:15:59.050Z,97047.69
2023-12-12T15:18:25.564Z,97042.63
2023-12-12T15:20:52.119Z,97038.69
2023-12-12T15:23:18.509Z,97043.50
2023-12-12T15:25:45.528Z,97037.69
2023-12-12T15:28:24.660Z,97029.19
2023-12-12T15:30:54.133Z,97030.59
2023-12-12T15:33:20.851Z,97034.34
2023-12-12T15:35:47.414Z,97033.38
2023-12-12T15:38:13.828Z,97030.19
2023-12-12T15:40:40.352Z,97027.84
2023-12-12T15:43:09.482Z,97024.28
2023-12-12T15:45:36.459Z,97032.47
2023-12-12T15:48:02.922Z,97025.63
2023-12-12T15:50:29.416Z,97018.72
2023-12-12T15:52:55.790Z,97014.19
2023-12-12T15:55:22.240Z,97011.03
2023-12-12T15:57:48.804Z,97006.97
2023-12-12T16:00:17.997Z,97005.19
2023-12-12T16:02:44.502Z,97003.63
2023-12-12T16:05:11.114Z,96998.59
2023-12-12T16:07:38.135Z,96992.69
2023-12-12T16:10:08.408Z,96989.53
2023-12-12T16:12:35.875Z,96987.22
2023-12-12T16:15:05.927Z,96977.72
2023-12-12T16:17:35.490Z,96981.88
2023-12-12T16:20:05.149Z,96966.16
2023-12-12T16:22:32.414Z,96972.06
2023-12-12T16:24:58.968Z,96969.78
2023-12-12T16:27:25.347Z,96961.69
2023-12-12T16:29:51.833Z,96956.47
2023-12-12T16:32:18.856Z,96945.50
2023-12-12T16:34:45.418Z,96953.19
2023-12-12T16:37:12.103Z,96955.44
2023-12-12T16:39:38.492Z,96946.00
2023-12-12T16:42:08.996Z,96943.00
2023-12-12T16:44:35.344Z,96936.44
2023-12-12T16:47:01.758Z,96928.88
2023-12-12T16:49:28.335Z,96930.44
2023-12-12T16:51:54.795Z,96925.25
2023-12-12T16:54:21.155Z,96924.78
2023-12-12T16:56:47.523Z,96920.50
2023-12-12T16:59:14.464Z,96918.97
2023-12-12T17:01:40.879Z,96917.22
2023-12-12T17:04:07.729Z,96922.72
2023-12-12T17:06:34.287Z,96921.31
2023-12-12T17:09:00.657Z,96921.47
2023-12-12T17:11:27.100Z,96917.19
2023-12-12T17:13:54.348Z,96912.47
2023-12-12T17:16:20.793Z,96903.81
2023-12-12T17:18:47.303Z,96910.09
2023-12-12T17:21:13.763Z,96903.69
2023-12-12T17:23:40.144Z,96901.63
2023-12-12T17:26:06.595Z,96899.44
2023-12-12T17:28:33.094Z,96890.97
2023-12-12T17:31:02.703Z,96890.16
2023-12-12T17:33:29.331Z,96888.41
2023-12-12T17:35:55.714Z,96887.97
2023-12-12T17:38:22.082Z,96876.66
2023-12-12T17:40:48.625Z,96870.34
2023-12-12T17:43:15.070Z,96868.13
2023-12-12T17:45:41.461Z,96870.03
2023-12-12T17:48:07.869Z,96873.66
2023-12-12T17:50:34.260Z,96868.63
2023-12-12T17:53:04.962Z,96863.44
2023-12-12T17:55:31.937Z,96869.25
2023-12-12T17:57:58.333Z,96863.44
2023-12-12T18:00:24.680Z,96863.72
2023-12-12T18:02:51.095Z,96860.59
2023-12-12T18:05:17.632Z,96856.34
2023-12-12T18:07:44.227Z,96856.81
2023-12-12T18:10:11.165Z,96857.13
2023-12-12T18:12:37.557Z,96851.78
2023-12-12T18:15:04.047Z,96849.91
2023-12-12T18:17:30.646Z,96846.44
2023-12-12T18:19:57.376Z,96838.72
2023-12-12T18:22:23.897Z,96839.19
2023-12-12T18:24:50.229Z,96834.00
2023-12-12T18:27:16.599Z,96828.50
2023-12-12T18:29:43.026Z,96823.31
2023-12-12T18:32:09.432Z,96824.56
2023-12-12T18:34:35.887Z,96817.03
2023-12-12T18:37:02.306Z,96818.09
2023-12-12T18:39:28.685Z,96809.16
2023-12-12T18:41:56.751Z,96805.72
2023-12-12T18:44:23.129Z,96797.19
2023-12-12T18:46:49.691Z,96797.97
2023-12-12T18:49:16.800Z,96793.56
2023-12-12T18:51:43.759Z,96782.09
2023-12-12T18:54:11.076Z,96774.56
2023-12-12T18:56:38.788Z,96774.88
2023-12-12T18:59:05.744Z,96782.72
2023-12-12T19:01:32.232Z,96779.59
2023-12-12T19:03:58.997Z,96775.97
2023-12-12T19:06:25.346Z,96777.25
2023-12-12T19:08:52.769Z,96772.19
2023-12-12T19:11:23.209Z,96775.66
2023-12-12T19:13:49.702Z,96764.19
2023-12-12T19:16:17.264Z,96761.31
2023-12-12T19:18:43.826Z,96757.88
2023-12-12T19:21:11.366Z,96757.38
2023-12-12T19:23:38.669Z,96752.03
2023-12-12T19:26:05.115Z,96752.03
2023-12-12T19:28:31.489Z,96746.69
2023-12-12T19:30:57.999Z,96749.53
2023-12-12T19:33:25.769Z,96740.41
2023-12-12T19:35:52.208Z,96745.75
2023-12-12T19:38:18.536Z,96744.19
2023-12-12T19:40:44.914Z,96747.47
2023-12-12T19:43:12.425Z,96739.63
2023-12-12T19:45:38.907Z,96738.22
2023-12-12T19:48:05.363Z,96734.75
2023-12-12T19:50:31.832Z,96729.25
2023-12-12T19:52:58.883Z,96722.63
2023-12-12T19:55:25.652Z,96720.78
2023-12-12T19:57:52.079Z,96721.69
2023-12-12T20:00:18.490Z,96704.72
2023-12-12T20:02:44.855Z,96704.13
2023-12-12T20:05:11.271Z,96704.13
2023-12-12T20:07:38.367Z,96706.47
2023-12-12T20:10:05.925Z,96706.28
2023-12-12T20:12:33.182Z,96710.50
2023-12-12T20:14:59.553Z,96709.25
2023-12-12T20:17:26.097Z,96702.03
2023-12-12T20:19:52.521Z,96696.03
2023-12-12T20:22:21.994Z,96700.75
2023-12-12T20:24:48.781Z,96684.84
2023-12-12T20:27:15.216Z,96687.66
2023-12-12T20:29:41.586Z,96683.91
2023-12-12T20:32:07.986Z,96692.06
2023-12-12T20:34:34.391Z,96688.75
2023-12-12T20:37:00.752Z,96694.09
2023-12-12T20:39:27.146Z,96686.53
2023-12-12T20:41:53.528Z,96701.75
2023-12-12T20:44:19.870Z,96702.88
2023-12-12T20:46:46.345Z,96701.16
2023-12-12T20:49:13.085Z,96700.84
2023-12-12T20:51:45.316Z,96704.28
2023-12-12T20:54:12.418Z,96699.72
2023-12-12T20:56:42.201Z,96691.19
2023-12-12T20:59:08.704Z,96684.94
2023-12-12T21:01:35.070Z,96682.88
2023-12-12T21:04:01.473Z,96686.22
2023-12-12T21:06:27.864Z,96687.47
2023-12-12T21:08:54.257Z,96686.22
2023-12-12T21:11:20.860Z,96685.13
2023-12-12T21:13:47.287Z,96683.03
2023-12-12T21:16:17.290Z,96679.13
2023-12-12T21:18:43.909Z,96668.44
2023-12-12T21:21:10.322Z,96665.59
2023-12-12T21:23:36.688Z,96662.94
2023-12-12T21:26:04.090Z,96659.78
2023-12-12T21:28:31.475Z,96660.88
2023-12-12T21:30:57.941Z,96665.78
2023-12-12T21:33:24.425Z,96651.63
2023-12-12T21:35:51.906Z,96656.50
2023-12-12T21:38:22.360Z,96656.81
2023-12-12T21:40:48.789Z,96657.16
2023-12-12T21:43:15.323Z,96663.28
2023-12-12T21:45:41.676Z,96660.47
2023-12-12T21:48:09.195Z,96654.66
2023-12-12T21:50:35.693Z,96662.81
2023-12-12T21:53:02.193Z,96669.00
2023-12-12T21:55:28.668Z,96666.75
2023-12-12T21:57:55.041Z,96653.41
2023-12-12T22:00:21.855Z,96647.59
2023-12-12T22:02:48.222Z,96643.03
2023-12-12T22:05:14.599Z,96639.88
2023-12-12T22:07:41.025Z,96643.66
2023-12-12T22:10:07.788Z,96649.34
2023-12-12T22:12:34.263Z,96640.53
2023-12-12T22:15:00.685Z,96632.03
2023-12-12T22:17:27.166Z,96631.69
2023-12-12T22:20:02.058Z,96623.84
2023-12-12T22:22:32.992Z,96617.72
2023-12-12T22:24:59.520Z,96617.56
2023-12-12T22:27:25.966Z,96621.34
2023-12-12T22:29:52.347Z,96619.47
2023-12-12T22:32:18.737Z,96610.22
2023-12-12T22:34:45.195Z,96602.81
2023-12-12T22:37:11.870Z,96603.78
2023-12-12T22:39:38.276Z,96614.19
2023-12-12T22:42:04.749Z,96612.13
2023-12-12T22:44:31.201Z,96610.56
2023-12-12T22:46:57.632Z,96606.34
2023-12-12T22:49:24.265Z,96599.41
2023-12-12T22:51:50.721Z,96603.50
2023-12-12T22:54:17.101Z,96605.41
2023-12-12T22:56:43.484Z,96599.28
2023-12-12T22:59:10.125Z,96597.38
2023-12-12T23:01:41.438Z,96604.09
2023-12-12T23:04:08.035Z,96602.09
2023-12-12T23:06:34.461Z,96601.28
2023-12-12T23:09:00.909Z,96603.50
2023-12-12T23:11:27.361Z,96604.13
2023-12-12T23:13:53.793Z,96603.34
2023-12-12T23:16:20.346Z,96597.88
2023-12-12T23:18:47.038Z,96593.16
2023-12-12T23:21:13.434Z,96590.00
2023-12-12T23:23:39.944Z,96589.88
2023-12-12T23:26:06.292Z,96583.75
2023-12-12T23:28:32.713Z,96585.94
2023-12-12T23:31:05.770Z,96583.59
2023-12-12T23:33:36.434Z,96584.22
2023-12-12T23:36:03.847Z,96576.53
2023-12-12T23:38:30.275Z,96574.97
2023-12-12T23:40:56.784Z,96572.13
2023-12-12T23:43:23.275Z,96568.69
2023-12-12T23:45:51.013Z,96571.19
2023-12-12T23:48:17.520Z,96571.19
2023-12-12T23:50:43.951Z,96572.59
2023-12-12T23:53:10.301Z,96571.03
2023-12-12T23:55:36.811Z,96567.56
2023-12-12T23:58:05.762Z,96572.91
